Terminal Aerodrome Forecast
Issued by NWS

Home | Current Version | Previous Version | Text Only | Print | Product List | Glossary Off
Versions: 1 2 3 4 5 6 7 8 9 10 11 12 13 14 15 16 17 18 19 20 21 22 23 24 25 26

000
FTUS43 KLSX 040500
TAFSUS
TAF
KSUS 040520Z 0406/0506 36008KT 4SM -RA BR OVC020
      TEMPO 0406/0410 2SM -RAPL BR OVC015
     FM041000 35012KT 5SM -SN BKN015
     FM041600 35012G20KT P6SM SCT015 OVC120
     FM042300 35008KT P6SM BKN120=

USA.gov is the U.S. government's official web portal to all federal, state and local government web resources and services.